Time;durP1;ratioP1;P1;durP2;ratioP2;P2;SDS_P1;SDS_P2;PMS_P1;PMS_P2;Temp;Humidity;BMP_temperature;BMP_pressure;BME280_temperature;BME280_humidity;BME280_pressure;Samples;Min_cycle;Max_cycle;Signal;HPM_P1;HPM_P2
2022/04/15 00:04:59;;;;;;;16.37;11.15;;;12.80;99.90;;;;;;6731211;87;20204;-81
2022/04/15 00:15:00;;;;;;;17.23;11.00;;;12.70;99.90;;;;;;6727254;88;20214;-81
2022/04/15 00:25:00;;;;;;;16.52;10.90;;;12.60;99.90;;;;;;6730909;88;20178;-81
2022/04/15 00:35:03;;;;;;;16.60;11.07;;;12.50;99.90;;;;;;6627640;88;20168;-82
2022/04/15 00:45:04;;;;;;;14.18;10.00;;;12.70;99.90;;;;;;6695686;88;20181;-81
2022/04/15 00:55:06;;;;;;;14.87;9.20;;;12.80;99.90;;;;;;6740892;88;20182;-81
2022/04/15 01:05:08;;;;;;;12.55;7.90;;;12.40;99.90;;;;;;6776544;87;20155;-82
2022/04/15 01:15:10;;;;;;;12.23;8.30;;;12.30;99.90;;;;;;6747284;88;20176;-81
2022/04/15 01:25:14;;;;;;;14.27;9.35;;;12.00;99.90;;;;;;6747085;88;21128;-81
2022/04/15 01:35:16;;;;;;;15.40;10.02;;;11.90;99.90;;;;;;6747083;88;20192;-81
2022/04/15 01:45:17;;;;;;;17.23;11.15;;;11.70;99.90;;;;;;6776245;87;20148;-81
2022/04/15 01:55:17;;;;;;;17.87;11.90;;;11.40;99.90;;;;;;6749476;88;20204;-81
2022/04/15 02:05:18;;;;;;;17.70;11.65;;;11.30;99.90;;;;;;6749894;88;20246;-81
2022/04/15 02:15:18;;;;;;;21.00;12.25;;;11.30;99.90;;;;;;6732294;88;20794;-82
2022/04/15 02:25:19;;;;;;;21.00;11.75;;;11.30;99.90;;;;;;6745690;88;20265;-81
2022/04/15 02:35:20;;;;;;;17.15;10.50;;;11.20;99.90;;;;;;6684308;88;20255;-81
2022/04/15 02:45:21;;;;;;;16.25;9.63;;;11.10;99.90;;;;;;6759191;88;20187;-81
2022/04/15 02:55:22;;;;;;;15.30;10.18;;;10.90;99.90;;;;;;6678685;88;20152;-80
2022/04/15 03:05:23;;;;;;;19.83;12.10;;;10.90;99.90;;;;;;6676134;88;20189;-81
2022/04/15 03:15:23;;;;;;;22.30;13.93;;;11.00;99.90;;;;;;6662074;88;20247;-80
2022/04/15 03:25:24;;;;;;;20.47;12.97;;;10.80;99.90;;;;;;6731981;88;20233;-80
2022/04/15 03:35:25;;;;;;;19.95;13.52;;;10.70;99.90;;;;;;6745147;88;20515;-80
2022/04/15 03:45:25;;;;;;;21.12;12.95;;;10.70;99.90;;;;;;6731246;88;20308;-81
2022/04/15 03:55:26;;;;;;;20.08;13.40;;;10.70;99.90;;;;;;6758382;88;20218;-81
2022/04/15 04:05:26;;;;;;;18.55;12.88;;;10.60;99.90;;;;;;6748309;88;20176;-79
2022/04/15 04:15:27;;;;;;;24.35;15.60;;;10.30;99.90;;;;;;6748198;88;20150;-82
2022/04/15 04:25:27;;;;;;;21.58;14.30;;;10.20;99.90;;;;;;6731165;88;20186;-81
2022/04/15 04:35:28;;;;;;;27.73;16.20;;;10.00;99.90;;;;;;6748364;88;20173;-80
2022/04/15 04:45:29;;;;;;;24.10;15.68;;;9.90;99.90;;;;;;6748034;88;20200;-80
2022/04/15 04:55:30;;;;;;;24.60;15.30;;;10.00;99.90;;;;;;6744043;88;20172;-81
2022/04/15 05:05:30;;;;;;;28.15;15.90;;;9.90;99.90;;;;;;6716947;88;20264;-80
2022/04/15 05:15:31;;;;;;;30.40;16.80;;;9.90;99.90;;;;;;6713091;88;20179;-81
2022/04/15 05:25:32;;;;;;;31.65;16.20;;;10.00;99.90;;;;;;6646952;88;20500;-80
2022/04/15 05:35:32;;;;;;;24.63;15.55;;;9.80;99.90;;;;;;6745300;88;20195;-81
2022/04/15 05:45:33;;;;;;;25.85;15.73;;;9.90;99.90;;;;;;6746558;88;20157;-81
2022/04/15 05:55:35;;;;;;;26.08;16.05;;;10.20;99.90;;;;;;6750413;88;20178;-81
2022/04/15 06:05:35;;;;;;;24.70;15.65;;;10.50;99.90;;;;;;6750083;88;20228;-81
2022/04/15 06:15:41;;;;;;;30.70;17.73;;;10.80;99.90;;;;;;6778767;87;20202;-81
2022/04/15 06:25:42;;;;;;;34.80;19.87;;;10.90;99.90;;;;;;6749481;88;20157;-81
2022/04/15 06:35:43;;;;;;;30.27;18.60;;;10.90;99.90;;;;;;6661871;88;20530;-82
2022/04/15 06:45:43;;;;;;;29.90;17.37;;;11.30;99.90;;;;;;6732034;88;20182;-81
2022/04/15 06:55:44;;;;;;;28.83;17.67;;;11.80;99.90;;;;;;6728398;88;20181;-81
2022/04/15 07:05:46;;;;;;;31.07;17.70;;;11.90;99.90;;;;;;6714859;88;20231;-81
2022/04/15 07:15:47;;;;;;;31.45;17.23;;;12.60;99.90;;;;;;6711469;88;20582;-82
2022/04/15 07:25:47;;;;;;;27.30;16.92;;;12.90;99.90;;;;;;6714629;88;20162;-82
2022/04/15 07:35:47;;;;;;;26.87;17.12;;;13.00;99.90;;;;;;6741505;88;20146;-82
2022/04/15 07:45:48;;;;;;;29.80;17.75;;;13.60;99.90;;;;;;6761785;88;20182;-82
2022/04/15 08:05:53;;;;;;;28.58;19.52;;;14.40;99.90;;;;;;6740317;88;20206;-80
2022/04/15 08:15:53;;;;;;;31.40;20.70;;;14.60;99.90;;;;;;6743059;88;20192;-77
2022/04/15 08:25:54;;;;;;;33.10;22.15;;;15.20;99.90;;;;;;6738534;88;20581;-79
2022/04/15 08:35:55;;;;;;;33.95;20.27;;;15.50;99.90;;;;;;6742851;88;20272;-78
2022/04/15 08:45:56;;;;;;;25.88;18.05;;;14.90;99.90;;;;;;6741198;88;20691;-79
2022/04/15 08:55:57;;;;;;;26.10;17.12;;;15.00;99.90;;;;;;6741736;88;20189;-78
2022/04/15 09:05:58;;;;;;;22.50;16.83;;;15.60;99.90;;;;;;6741233;88;20193;-78
2022/04/15 09:16:00;;;;;;;23.57;17.80;;;15.90;99.90;;;;;;6741214;88;20192;-79
2022/04/15 09:26:00;;;;;;;24.65;17.00;;;15.80;99.90;;;;;;6742788;88;21046;-79
2022/04/15 09:36:01;;;;;;;26.67;17.50;;;15.80;99.90;;;;;;6751154;88;20196;-79
2022/04/15 09:46:08;;;;;;;31.85;18.35;;;16.30;99.90;;;;;;6739290;88;20185;-78
2022/04/15 09:56:09;;;;;;;35.63;19.80;;;16.50;99.90;;;;;;6742604;88;20176;-78
2022/04/15 10:06:10;;;;;;;32.42;18.52;;;16.90;99.90;;;;;;6741174;88;20229;-78
2022/04/15 10:16:12;;;;;;;34.63;19.27;;;16.50;99.90;;;;;;6742862;88;20651;-79
2022/04/15 10:26:17;;;;;;;35.63;20.55;;;17.40;99.90;;;;;;6740173;88;20196;-79
2022/04/15 10:36:24;;;;;;;35.60;19.40;;;17.60;99.90;;;;;;6741895;88;20258;-79
2022/04/15 10:46:32;;;;;;;34.03;18.55;;;17.20;99.90;;;;;;6743812;88;20661;-78
2022/04/15 10:57:02;;;;;;;30.58;17.02;;;17.00;99.90;;;;;;6739297;88;20287;-78
2022/04/15 11:07:15;;;;;;;27.45;15.45;;;16.40;99.90;;;;;;6739876;88;20748;-78
2022/04/15 11:17:16;;;;;;;27.15;15.25;;;16.70;99.90;;;;;;6743886;88;20648;-79
2022/04/15 11:27:18;;;;;;;26.43;15.70;;;17.40;99.90;;;;;;6743901;88;20211;-78
2022/04/15 11:37:18;;;;;;;25.15;14.75;;;17.00;99.90;;;;;;6743015;88;20184;-79
2022/04/15 11:47:19;;;;;;;22.87;14.53;;;17.70;99.90;;;;;;6745416;88;20338;-78
2022/04/15 11:57:20;;;;;;;21.42;14.23;;;18.00;99.90;;;;;;6744634;88;20546;-78
2022/04/15 12:07:21;;;;;;;18.52;12.98;;;19.50;99.90;;;;;;6740137;88;20216;-78
2022/04/15 12:17:22;;;;;;;19.67;13.03;;;19.30;98.20;;;;;;6742847;88;20274;-78
2022/04/15 12:27:32;;;;;;;17.02;11.93;;;19.30;99.10;;;;;;6743676;88;20984;-78
2022/04/15 12:37:56;;;;;;;15.73;12.07;;;19.90;96.80;;;;;;6740518;88;20214;-78
2022/04/15 12:48:10;;;;;;;9.90;8.38;;;20.10;96.60;;;;;;6744243;88;20340;-79
2022/04/15 12:58:28;;;;;;;10.70;7.57;;;21.40;93.90;;;;;;6746848;88;20196;-78
2022/04/15 13:08:29;;;;;;;7.55;6.15;;;19.50;94.10;;;;;;6746545;88;20320;-78
2022/04/15 13:18:30;;;;;;;7.20;5.30;;;19.80;94.50;;;;;;6745876;88;20192;-78
2022/04/15 13:28:30;;;;;;;6.75;5.03;;;20.90;93.30;;;;;;6744984;88;20501;-78
2022/04/15 13:38:33;;;;;;;7.30;5.50;;;21.00;92.80;;;;;;6741598;88;20314;-78
2022/04/15 13:48:33;;;;;;;8.23;5.00;;;20.50;92.00;;;;;;6746916;88;20214;-78
2022/04/15 14:09:36;;;;;;;6.55;4.95;;;20.70;92.00;;;;;;6752562;88;20188;-85
2022/04/15 14:19:36;;;;;;;8.55;4.80;;;20.50;91.90;;;;;;6732961;88;20968;-85
2022/04/15 14:29:37;;;;;;;5.78;5.03;;;20.30;91.90;;;;;;6715720;88;20152;-85
2022/04/15 14:39:37;;;;;;;7.60;5.32;;;20.10;92.00;;;;;;6715672;88;20170;-82
2022/04/15 14:49:38;;;;;;;6.60;5.40;;;20.10;91.40;;;;;;6698489;88;20258;-85
2022/04/15 14:59:39;;;;;;;9.00;7.05;;;19.80;91.80;;;;;;6664567;89;20198;-85
2022/04/15 15:09:39;;;;;;;8.88;7.10;;;19.70;92.50;;;;;;6664562;89;20168;-85
2022/04/15 15:19:40;;;;;;;10.15;6.55;;;19.60;92.40;;;;;;6677630;89;20195;-83
2022/04/15 15:29:50;;;;;;;11.90;8.90;;;19.60;92.80;;;;;;6722926;88;20196;-85
2022/04/15 15:39:50;;;;;;;12.07;7.78;;;19.10;92.90;;;;;;6734100;88;20522;-84
2022/04/15 15:49:51;;;;;;;7.68;5.90;;;19.10;93.50;;;;;;6733879;88;20174;-84
2022/04/15 15:59:51;;;;;;;9.45;4.80;;;19.10;93.50;;;;;;6733817;88;20204;-85
2022/04/15 16:09:52;;;;;;;7.72;5.68;;;19.00;93.20;;;;;;6714177;88;20704;-84
2022/04/15 16:19:58;;;;;;;10.02;6.43;;;18.80;93.70;;;;;;6714730;88;20239;-84
2022/04/15 16:29:59;;;;;;;10.73;6.45;;;18.30;93.90;;;;;;6714558;88;20175;-83
2022/04/15 16:39:59;;;;;;;8.73;5.40;;;17.50;94.70;;;;;;6729321;88;20661;-83
2022/04/15 16:50:00;;;;;;;6.05;4.20;;;17.60;94.90;;;;;;6733005;88;20927;-85
2022/04/15 17:00:00;;;;;;;3.12;2.30;;;17.40;94.60;;;;;;6733010;88;20185;-84
2022/04/15 17:10:01;;;;;;;2.83;2.00;;;17.40;94.10;;;;;;6732794;88;20166;-84
2022/04/15 17:20:09;;;;;;;2.78;1.95;;;17.20;94.60;;;;;;6734222;88;20705;-83
2022/04/15 17:30:10;;;;;;;2.95;1.83;;;17.00;94.30;;;;;;6738649;88;20157;-83
2022/04/15 17:40:11;;;;;;;4.68;1.80;;;16.70;94.50;;;;;;6738781;88;20173;-84
2022/04/15 17:50:12;;;;;;;3.45;1.90;;;16.40;94.80;;;;;;6735803;88;20814;-83
2022/04/15 18:00:13;;;;;;;3.10;1.95;;;16.10;96.30;;;;;;6733345;88;20220;-82
2022/04/15 18:10:14;;;;;;;2.83;1.90;;;15.70;97.40;;;;;;6731457;88;20189;-82
2022/04/15 18:20:15;;;;;;;3.35;2.15;;;15.40;98.90;;;;;;6699966;88;20832;-84
2022/04/15 18:30:16;;;;;;;3.42;2.33;;;14.90;99.90;;;;;;6699714;88;20235;-83
2022/04/15 18:40:16;;;;;;;4.43;2.50;;;14.70;99.90;;;;;;6697178;88;20202;-82
2022/04/15 19:00:37;;;;;;;4.03;2.47;;;13.90;99.90;;;;;;6713637;88;20158;-82
2022/04/15 19:10:39;;;;;;;4.35;2.60;;;13.80;99.90;;;;;;6713458;88;20194;-83
2022/04/15 19:20:40;;;;;;;4.65;2.55;;;13.60;99.90;;;;;;6729411;88;20219;-83
2022/04/15 19:30:41;;;;;;;4.53;2.83;;;13.30;99.90;;;;;;6712640;88;20278;-82
2022/04/15 19:40:42;;;;;;;5.78;2.65;;;13.30;99.90;;;;;;6713141;88;20263;-83
2022/04/15 19:50:43;;;;;;;4.65;2.80;;;13.10;99.90;;;;;;6719564;88;20212;-82
2022/04/15 20:10:53;;;;;;;4.50;3.55;;;12.70;99.90;;;;;;6733741;88;20283;-82
2022/04/15 20:20:55;;;;;;;6.28;3.62;;;12.50;99.90;;;;;;6733736;88;20204;-82
2022/04/15 20:30:56;;;;;;;6.12;3.15;;;12.10;99.90;;;;;;6733254;88;20408;-83
2022/04/15 20:40:57;;;;;;;5.70;3.28;;;12.00;99.90;;;;;;6696920;88;20440;-82
2022/04/15 20:50:59;;;;;;;5.25;3.42;;;11.90;99.90;;;;;;6696608;88;20216;-83
2022/04/15 21:00:59;;;;;;;5.80;3.10;;;11.80;99.90;;;;;;6696563;88;20519;-84
2022/04/15 21:11:00;;;;;;;5.37;3.50;;;11.60;99.90;;;;;;6725175;88;20480;-82
2022/04/15 21:21:00;;;;;;;7.05;3.97;;;11.40;99.90;;;;;;6713490;88;20197;-81
2022/04/15 21:31:01;;;;;;;8.48;3.87;;;11.10;99.90;;;;;;6713536;88;20338;-82
2022/04/15 21:41:01;;;;;;;4.70;3.47;;;10.90;99.90;;;;;;6713517;88;20158;-82
2022/04/15 22:01:24;;;;;;;8.18;4.30;;;10.50;99.90;;;;;;6732205;88;20138;-83
2022/04/15 22:11:25;;;;;;;7.32;4.60;;;10.50;99.90;;;;;;6733922;88;20925;-82
2022/04/15 22:21:25;;;;;;;7.10;4.57;;;10.40;99.90;;;;;;6734685;88;20420;-82
2022/04/15 22:31:26;;;;;;;8.55;5.28;;;10.40;99.90;;;;;;6698554;88;20171;-83
2022/04/15 22:41:29;;;;;;;7.25;4.28;;;10.30;99.90;;;;;;6698494;88;20168;-83
2022/04/15 22:51:30;;;;;;;6.12;4.50;;;10.00;99.90;;;;;;6681654;89;20892;-80
2022/04/15 23:01:30;;;;;;;7.15;4.40;;;9.80;99.90;;;;;;6708251;88;20241;-80
2022/04/15 23:11:31;;;;;;;8.88;4.85;;;9.50;99.90;;;;;;6714674;88;20817;-80
2022/04/15 23:21:34;;;;;;;7.53;4.53;;;9.40;99.90;;;;;;6729868;88;20788;-79
2022/04/15 23:31:35;;;;;;;6.95;4.62;;;9.40;99.90;;;;;;6734044;88;20527;-80
2022/04/15 23:41:35;;;;;;;7.35;4.68;;;9.30;99.90;;;;;;6733854;88;20194;-80
2022/04/15 23:51:36;;;;;;;7.57;4.87;;;9.00;99.90;;;;;;6729725;88;20285;-80
